Time;durP1;ratioP1;P1;durP2;ratioP2;P2;SDS_P1;SDS_P2;PMS_P1;PMS_P2;Temp;Humidity;BMP_temperature;BMP_pressure;BME280_temperature;BME280_humidity;BME280_pressure;Samples;Min_cycle;Max_cycle;Signal;HPM_P1;HPM_P2
2023/06/30 00:01:48;;;;;;;5.53;2.08;;;;;;;16.06;78.24;101440.38;7377364;19;19937;-72
2023/06/30 00:04:19;;;;;;;10.43;2.13;;;;;;;16.04;78.53;101439.75;7379059;19;19922;-71
2023/06/30 00:06:51;;;;;;;7.32;2.10;;;;;;;15.98;78.42;101440.53;7377398;19;19933;-72
2023/06/30 00:09:21;;;;;;;6.43;2.10;;;;;;;15.92;78.15;101447.59;7381008;19;19933;-71
2023/06/30 00:11:52;;;;;;;11.43;2.53;;;;;;;15.87;78.35;101448.22;7378470;19;19928;-71
2023/06/30 00:14:21;;;;;;;8.30;2.05;;;;;;;15.82;78.33;101445.25;7381649;19;19925;-71
2023/06/30 00:16:52;;;;;;;7.47;2.10;;;;;;;15.81;78.40;101448.16;7379881;19;19927;-71
2023/06/30 00:19:23;;;;;;;4.93;2.20;;;;;;;15.73;78.63;101437.44;7384486;19;19926;-71
2023/06/30 00:21:55;;;;;;;11.88;2.45;;;;;;;15.72;78.73;101441.16;7379853;19;19957;-72
2023/06/30 00:24:24;;;;;;;6.50;1.60;;;;;;;15.69;78.36;101447.00;7378078;19;19922;-72
2023/06/30 00:26:53;;;;;;;7.45;2.30;;;;;;;15.67;78.73;101449.06;7380797;19;19926;-72
2023/06/30 00:29:22;;;;;;;8.73;2.03;;;;;;;15.66;78.45;101439.25;7383805;19;19935;-71
2023/06/30 00:31:50;;;;;;;3.00;1.83;;;;;;;15.62;78.53;101444.22;7379035;19;19918;-71
2023/06/30 00:34:19;;;;;;;7.15;2.10;;;;;;;15.61;78.41;101441.72;7382620;19;19985;-71
2023/06/30 00:36:48;;;;;;;6.88;1.98;;;;;;;15.60;78.56;101440.88;7380816;19;19981;-71
2023/06/30 00:39:19;;;;;;;5.72;1.95;;;;;;;15.58;78.36;101431.22;7379257;19;19922;-71
2023/06/30 00:41:48;;;;;;;6.45;2.10;;;;;;;15.54;78.52;101433.50;7380834;19;19998;-72
2023/06/30 00:44:16;;;;;;;7.70;2.15;;;;;;;15.50;78.51;101434.94;7380617;19;19922;-72
2023/06/30 00:46:45;;;;;;;6.35;2.28;;;;;;;15.44;78.58;101427.53;7378694;19;19923;-71
2023/06/30 00:49:14;;;;;;;6.50;1.75;;;;;;;15.43;78.80;101423.16;7380434;19;19926;-72
2023/06/30 00:51:43;;;;;;;7.07;1.92;;;;;;;15.41;78.76;101426.03;7376570;19;19923;-71
2023/06/30 00:54:12;;;;;;;8.90;2.10;;;;;;;15.37;78.93;101424.75;7374634;19;19982;-72
2023/06/30 00:56:43;;;;;;;3.88;1.45;;;;;;;15.34;78.65;101427.03;7378777;19;20336;-72
2023/06/30 00:59:12;;;;;;;6.68;1.80;;;;;;;15.33;78.34;101423.47;7380048;19;19926;-71
2023/06/30 01:01:46;;;;;;;4.70;1.83;;;;;;;15.33;78.27;101426.19;7379113;19;19929;-71
2023/06/30 01:04:23;;;;;;;5.75;2.13;;;;;;;15.29;78.20;101422.19;7377715;19;19950;-72
2023/06/30 01:07:01;;;;;;;10.13;2.30;;;;;;;15.25;78.02;101414.63;7377281;19;19926;-72
2023/06/30 01:09:35;;;;;;;7.10;1.73;;;;;;;15.21;78.03;101418.75;7380242;19;19954;-71
2023/06/30 01:12:07;;;;;;;4.72;1.67;;;;;;;15.17;78.31;101429.16;7377990;19;19926;-71
2023/06/30 01:14:37;;;;;;;8.02;1.95;;;;;;;15.15;78.03;101422.22;7380582;19;19978;-72
2023/06/30 01:17:08;;;;;;;5.57;1.90;;;;;;;15.15;77.98;101419.50;7379392;19;19923;-71
2023/06/30 01:19:44;;;;;;;6.82;2.30;;;;;;;15.13;77.83;101427.88;7382663;19;19933;-71
2023/06/30 01:22:30;;;;;;;4.55;1.90;;;;;;;15.11;78.07;101431.78;7380303;19;19926;-73
2023/06/30 01:25:04;;;;;;;5.10;1.80;;;;;;;15.10;77.80;101433.66;7377237;19;19925;-71
2023/06/30 01:27:36;;;;;;;5.03;2.13;;;;;;;15.10;77.54;101432.84;7379440;19;19974;-72
2023/06/30 01:30:05;;;;;;;6.20;1.90;;;;;;;15.11;77.64;101431.78;7381685;19;20657;-71
2023/06/30 01:32:34;;;;;;;5.30;1.90;;;;;;;15.08;77.39;101430.31;7372683;19;19935;-72
2023/06/30 01:35:02;;;;;;;7.18;1.50;;;;;;;15.04;77.22;101423.59;7380147;19;19930;-72
2023/06/30 01:37:31;;;;;;;4.47;1.90;;;;;;;15.02;77.52;101430.22;7380158;19;20621;-71
2023/06/30 01:40:01;;;;;;;5.65;1.73;;;;;;;14.97;77.49;101431.66;7378072;19;19953;-71
2023/06/30 01:42:30;;;;;;;6.15;1.90;;;;;;;14.94;77.28;101423.06;7379332;19;20304;-72
2023/06/30 01:45:02;;;;;;;5.90;1.70;;;;;;;14.94;77.23;101418.47;7378975;19;20571;-71
2023/06/30 01:47:32;;;;;;;7.47;2.08;;;;;;;14.95;77.46;101413.91;7380897;19;19986;-72
2023/06/30 01:50:01;;;;;;;6.13;2.13;;;;;;;14.89;76.99;101412.78;7378958;19;19923;-71
2023/06/30 01:52:29;;;;;;;5.13;1.70;;;;;;;14.89;77.32;101409.22;7372965;19;19918;-71
2023/06/30 01:54:58;;;;;;;9.23;2.47;;;;;;;14.85;77.24;101413.34;7376231;19;19914;-71
2023/06/30 01:57:27;;;;;;;7.57;2.00;;;;;;;14.81;76.98;101415.63;7379993;19;19940;-72
2023/06/30 01:59:56;;;;;;;4.72;1.70;;;;;;;14.77;77.10;101408.91;7380614;19;19935;-72
2023/06/30 02:02:27;;;;;;;9.57;1.67;;;;;;;14.75;77.49;101412.84;7377238;19;19990;-71
2023/06/30 02:04:56;;;;;;;3.63;1.45;;;;;;;14.71;77.29;101414.25;7380081;19;20339;-72
2023/06/30 02:07:25;;;;;;;6.65;2.00;;;;;;;14.69;77.57;101413.59;7375501;19;19932;-71
2023/06/30 02:09:54;;;;;;;7.55;2.08;;;;;;;14.66;77.23;101416.69;7230131;19;2923594;-72
2023/06/30 02:12:23;;;;;;;8.70;2.35;;;;;;;14.67;77.32;101415.66;7380843;19;19933;-71
2023/06/30 02:14:51;;;;;;;5.15;1.70;;;;;;;14.65;77.25;101423.97;7383807;19;20328;-72
2023/06/30 02:17:32;;;;;;;8.13;1.90;;;;;;;14.59;77.65;101424.72;7381900;19;19915;-72
2023/06/30 02:20:02;;;;;;;6.18;1.50;;;;;;;14.60;77.45;101414.72;7387069;19;19918;-72
2023/06/30 02:22:31;;;;;;;4.90;2.40;;;;;;;14.56;77.85;101414.28;7382111;19;19919;-72
2023/06/30 02:25:00;;;;;;;4.45;1.48;;;;;;;14.55;77.89;101415.28;7379623;19;19929;-72
2023/06/30 02:27:29;;;;;;;7.05;1.83;;;;;;;14.54;77.91;101428.00;7381355;19;20868;-72
2023/06/30 02:30:04;;;;;;;10.05;1.83;;;;;;;14.54;77.66;101413.59;7382536;19;19918;-72
2023/06/30 02:32:37;;;;;;;7.38;1.50;;;;;;;14.53;77.69;101423.63;7380012;19;19990;-72
2023/06/30 02:35:08;;;;;;;6.35;1.73;;;;;;;14.54;77.64;101417.16;7383150;19;20766;-72
2023/06/30 02:37:37;;;;;;;3.25;1.50;;;;;;;14.56;77.46;101418.84;7382047;19;20279;-72
2023/06/30 02:40:08;;;;;;;9.20;2.05;;;;;;;14.52;77.37;101418.41;7382630;19;19928;-73
2023/06/30 02:42:37;;;;;;;4.53;1.60;;;;;;;14.47;77.42;101415.41;7381676;19;19914;-72
2023/06/30 02:45:07;;;;;;;6.13;1.75;;;;;;;14.47;77.88;101424.38;7384949;19;19928;-72
2023/06/30 02:47:40;;;;;;;7.43;1.90;;;;;;;14.43;77.47;101416.81;7382942;19;19945;-72
2023/06/30 02:50:10;;;;;;;6.65;1.70;;;;;;;14.44;77.62;101410.38;7381450;19;19930;-72
2023/06/30 02:52:39;;;;;;;3.63;1.70;;;;;;;14.42;77.35;101413.25;7379771;19;19954;-72
2023/06/30 02:55:08;;;;;;;4.10;1.73;;;;;;;14.35;77.49;101409.63;7380475;19;19929;-72
2023/06/30 02:57:37;;;;;;;6.68;1.63;;;;;;;14.34;77.87;101404.34;7381194;19;19922;-71
2023/06/30 03:00:08;;;;;;;5.53;1.88;;;;;;;14.34;77.65;101402.50;7383594;19;19974;-72
2023/06/30 03:02:39;;;;;;;7.25;1.73;;;;;;;14.30;77.62;101406.59;7382113;19;19919;-71
2023/06/30 03:05:08;;;;;;;5.13;2.13;;;;;;;14.23;77.93;101408.41;7383850;19;19925;-72
2023/06/30 03:07:37;;;;;;;5.55;1.90;;;;;;;14.16;78.11;101409.31;7381397;19;19926;-72
2023/06/30 03:10:07;;;;;;;6.97;2.03;;;;;;;14.13;77.79;101404.28;7376922;19;19921;-72
2023/06/30 03:12:35;;;;;;;8.90;2.00;;;;;;;14.08;77.89;101402.97;7375857;19;19920;-72
2023/06/30 03:15:04;;;;;;;6.05;1.75;;;;;;;14.09;78.11;101403.81;7381755;19;19922;-72
2023/06/30 03:17:34;;;;;;;8.57;1.45;;;;;;;14.08;78.26;101397.56;7380008;19;19925;-72
2023/06/30 03:20:12;;;;;;;6.75;1.50;;;;;;;14.10;78.15;101397.38;7385034;19;19930;-72
2023/06/30 03:22:40;;;;;;;;;;;;;;;13.94;79.20;101390.25;7384656;19;19926;-72
2023/06/30 03:25:11;;;;;;;8.95;1.65;;;;;;;14.06;78.56;101394.19;7379045;19;19951;-71
2023/06/30 03:27:40;;;;;;;5.57;1.70;;;;;;;14.06;78.34;101386.03;7380538;19;19918;-72
2023/06/30 03:30:10;;;;;;;5.15;1.58;;;;;;;14.06;78.74;101387.94;7382537;19;19926;-72
2023/06/30 03:32:38;;;;;;;4.70;1.55;;;;;;;14.02;78.61;101401.00;7379174;19;20355;-72
2023/06/30 03:35:10;;;;;;;7.18;1.67;;;;;;;13.98;78.81;101394.28;7382786;19;20365;-72
2023/06/30 03:37:39;;;;;;;7.75;2.03;;;;;;;13.98;78.67;101399.69;7382689;19;19999;-72
2023/06/30 03:40:09;;;;;;;10.85;1.88;;;;;;;13.94;79.13;101403.81;7381620;19;20033;-72
2023/06/30 03:42:38;;;;;;;5.60;1.92;;;;;;;13.91;79.24;101401.47;7382630;19;20356;-71
2023/06/30 03:45:07;;;;;;;10.80;3.28;;;;;;;13.88;78.75;101406.44;7382731;19;19933;-72
2023/06/30 03:47:37;;;;;;;8.00;2.33;;;;;;;13.83;78.86;101398.84;7381080;19;20395;-72
2023/06/30 03:50:06;;;;;;;6.63;1.95;;;;;;;13.80;78.94;101401.09;7380385;19;19946;-72
2023/06/30 03:52:37;;;;;;;5.68;2.30;;;;;;;13.74;79.44;101401.81;7379132;19;19925;-72
2023/06/30 03:55:07;;;;;;;5.85;2.85;;;;;;;13.72;79.18;101404.72;7376259;19;19928;-77
2023/06/30 03:57:36;;;;;;;4.72;2.33;;;;;;;13.70;79.52;101411.34;7379197;19;19953;-72
2023/06/30 04:00:06;;;;;;;7.55;2.38;;;;;;;13.67;79.34;101412.56;7380864;19;19922;-71
2023/06/30 04:02:35;;;;;;;8.98;2.08;;;;;;;13.66;79.28;101412.75;7380978;19;19919;-71
2023/06/30 04:05:04;;;;;;;9.38;2.20;;;;;;;13.60;79.71;101417.84;7379495;19;19933;-71
2023/06/30 04:07:32;;;;;;;9.20;2.35;;;;;;;13.59;79.79;101420.78;7380214;19;20549;-72
2023/06/30 04:10:04;;;;;;;7.85;2.08;;;;;;;13.59;79.57;101410.75;7379403;19;19928;-71
2023/06/30 04:12:32;;;;;;;4.40;1.58;;;;;;;13.59;79.66;101421.59;7379221;19;19922;-71
2023/06/30 04:15:01;;;;;;;7.20;2.13;;;;;;;13.58;79.61;101419.94;7385499;19;20550;-71
2023/06/30 04:17:30;;;;;;;6.15;2.53;;;;;;;13.58;79.58;101419.94;7380221;19;19962;-71
2023/06/30 04:19:59;;;;;;;8.40;1.85;;;;;;;13.55;79.43;101420.25;7380602;19;19915;-71
2023/06/30 04:22:28;;;;;;;7.43;2.15;;;;;;;13.53;79.57;101425.03;7375835;19;19950;-71
2023/06/30 04:24:57;;;;;;;6.93;2.00;;;;;;;13.55;79.47;101416.72;7377175;19;20356;-71
2023/06/30 04:27:28;;;;;;;6.90;2.25;;;;;;;13.51;79.66;101428.94;7375764;19;19922;-71
2023/06/30 04:29:57;;;;;;;8.45;2.20;;;;;;;13.47;79.66;101416.78;7380597;19;19922;-71
2023/06/30 04:32:26;;;;;;;3.60;2.15;;;;;;;13.46;79.72;101412.44;7376590;19;19929;-71
2023/06/30 04:34:58;;;;;;;7.22;2.00;;;;;;;13.49;79.79;101418.31;7381042;19;20747;-71
2023/06/30 04:37:28;;;;;;;;;;;;;;;13.31;80.44;101417.78;7381201;19;19922;-71
2023/06/30 04:39:58;;;;;;;4.93;2.20;;;;;;;13.45;79.93;101419.69;7379556;19;19953;-71
2023/06/30 04:42:29;;;;;;;10.52;2.05;;;;;;;13.48;79.97;101416.63;7377210;19;19934;-71
2023/06/30 04:44:58;;;;;;;;;;;;;;;13.35;80.46;101420.97;7382385;19;19923;-71
2023/06/30 04:47:27;;;;;;;6.93;2.20;;;;;;;13.50;80.31;101419.16;7375443;19;19925;-71
2023/06/30 04:49:56;;;;;;;6.47;2.63;;;;;;;13.53;79.68;101416.91;7379586;19;19929;-71
2023/06/30 04:52:24;;;;;;;7.47;1.83;;;;;;;13.53;79.65;101422.34;7377881;19;19945;-71
2023/06/30 04:54:54;;;;;;;6.85;2.00;;;;;;;13.53;79.92;101422.34;7374357;19;20819;-71
2023/06/30 04:57:23;;;;;;;4.75;1.85;;;;;;;13.53;80.05;101427.75;7376672;19;19926;-71
2023/06/30 04:59:56;;;;;;;6.32;2.20;;;;;;;13.56;79.73;101416.53;7379495;19;19926;-71
2023/06/30 05:02:25;;;;;;;4.15;1.63;;;;;;;13.60;79.81;101420.56;7375179;19;19926;-72
2023/06/30 05:04:54;;;;;;;7.80;2.17;;;;;;;13.60;79.42;101412.44;7375519;19;19970;-71
2023/06/30 05:07:22;;;;;;;2.70;1.77;;;;;;;13.62;79.62;101420.38;7373635;19;19918;-71
2023/06/30 05:09:51;;;;;;;8.70;1.95;;;;;;;13.62;79.50;101421.25;7375232;19;20238;-71
2023/06/30 05:12:20;;;;;;;8.70;2.20;;;;;;;13.67;79.59;101417.97;7371880;19;19919;-70
2023/06/30 05:14:49;;;;;;;5.95;2.20;;;;;;;13.68;80.03;101418.81;7376254;19;19922;-71
2023/06/30 05:17:21;;;;;;;7.45;2.22;;;;;;;13.70;79.53;101416.75;7375770;19;20277;-71
2023/06/30 05:19:49;;;;;;;7.18;2.30;;;;;;;13.74;80.00;101423.50;7381239;19;19939;-72
2023/06/30 05:22:19;;;;;;;9.52;2.45;;;;;;;13.79;79.59;101412.94;7374485;19;19925;-72
2023/06/30 05:24:47;;;;;;;8.25;2.22;;;;;;;13.85;79.96;101414.94;7377397;19;19927;-72
2023/06/30 05:27:18;;;;;;;7.32;2.10;;;;;;;13.89;80.04;101421.66;7373959;19;19951;-72
2023/06/30 05:29:46;;;;;;;7.35;2.28;;;;;;;13.95;80.13;101418.19;7374418;19;20360;-71
2023/06/30 05:32:15;;;;;;;9.15;2.03;;;;;;;14.04;79.84;101417.06;7367125;19;19982;-72
2023/06/30 05:34:47;;;;;;;11.25;2.47;;;;;;;14.15;80.25;101416.59;7374891;19;19982;-73
2023/06/30 05:37:16;;;;;;;6.63;2.25;;;;;;;14.23;79.46;101419.25;7369499;19;20419;-73
2023/06/30 05:39:44;;;;;;;6.60;1.88;;;;;;;14.29;79.62;101412.22;7379526;19;19911;-74
2023/06/30 05:42:13;;;;;;;5.90;1.80;;;;;;;14.34;79.64;101413.34;7368444;19;19919;-74
2023/06/30 05:44:42;;;;;;;6.68;1.92;;;;;;;14.40;79.14;101418.03;7377775;19;19940;-74
2023/06/30 05:47:10;;;;;;;7.57;2.78;;;;;;;14.47;79.65;101410.81;7374498;19;20276;-74
2023/06/30 05:49:39;;;;;;;5.30;2.05;;;;;;;14.56;79.51;101419.69;7372594;19;19928;-74
2023/06/30 05:52:11;;;;;;;8.45;2.15;;;;;;;14.63;79.83;101419.75;7366157;19;20518;-74
2023/06/30 05:54:40;;;;;;;4.75;1.77;;;;;;;14.71;79.07;101425.09;7376986;19;19923;-74
2023/06/30 05:57:09;;;;;;;3.95;1.60;;;;;;;14.80;78.41;101423.94;7382095;19;19919;-73
2023/06/30 05:59:38;;;;;;;5.05;1.90;;;;;;;14.88;78.28;101427.41;7380610;19;20291;-75
2023/06/30 06:02:07;;;;;;;3.60;1.45;;;;;;;14.97;77.98;101425.41;7351944;19;19915;-74
2023/06/30 06:04:36;;;;;;;4.32;1.17;;;;;;;15.04;78.05;101420.88;7352963;19;19930;-73
2023/06/30 06:07:05;;;;;;;2.72;1.23;;;;;;;15.12;77.57;101422.63;7356662;19;19986;-72
2023/06/30 06:09:36;;;;;;;3.00;1.30;;;;;;;15.19;77.59;101424.38;7360152;19;20292;-73
2023/06/30 06:12:06;;;;;;;6.75;1.38;;;;;;;15.24;77.00;101421.91;7349118;19;19935;-75
2023/06/30 06:14:35;;;;;;;7.15;1.33;;;;;;;15.32;77.06;101424.50;7356702;19;20517;-74
2023/06/30 06:17:04;;;;;;;5.30;1.45;;;;;;;15.38;77.15;101425.59;7362201;19;19943;-75
2023/06/30 06:19:32;;;;;;;2.55;1.20;;;;;;;15.45;77.07;101421.06;7361888;19;20002;-75
2023/06/30 06:22:01;;;;;;;4.47;1.15;;;;;;;15.52;76.66;101432.03;7360893;19;19926;-76
2023/06/30 06:24:30;;;;;;;5.30;1.40;;;;;;;15.60;76.29;101435.44;7361371;19;19926;-74
2023/06/30 06:27:02;;;;;;;3.80;1.20;;;;;;;15.65;76.65;101440.28;7360980;19;19946;-76
2023/06/30 06:29:31;;;;;;;5.93;1.58;;;;;;;15.70;76.70;101430.53;7356456;19;19918;-75
2023/06/30 06:37:18;;;;;;;3.53;1.00;;;;;;;15.86;75.57;101445.69;7334412;19;20509;-66
2023/06/30 06:39:47;;;;;;;6.63;0.90;;;;;;;15.95;75.33;101446.38;7341987;19;19926;-66
2023/06/30 06:42:20;;;;;;;4.75;1.35;;;;;;;16.02;74.82;101442.66;7328184;19;19934;-66
2023/06/30 06:44:49;;;;;;;4.38;1.27;;;;;;;16.08;74.92;101439.16;7296485;19;20673;-66
2023/06/30 06:47:48;;;;;;;3.75;1.23;;;;;;;16.07;74.28;101440.19;7359749;19;20363;-67
2023/06/30 06:50:17;;;;;;;6.07;1.75;;;;;;;16.21;74.02;101466.44;7359339;19;22285;-65
2023/06/30 06:52:46;;;;;;;6.82;1.40;;;;;;;16.27;74.08;101452.00;7354940;19;19926;-65
2023/06/30 06:55:15;;;;;;;2.50;1.10;;;;;;;16.37;73.71;101446.22;7350480;19;20397;-65
2023/06/30 06:57:48;;;;;;;1.95;0.93;;;;;;;16.46;73.62;101453.19;7356133;19;19935;-65
2023/06/30 07:00:18;;;;;;;5.07;1.30;;;;;;;16.56;72.92;101447.38;7350561;19;19922;-66
2023/06/30 07:02:47;;;;;;;2.35;1.10;;;;;;;16.68;72.83;101441.19;7352015;19;19945;-65
2023/06/30 07:05:16;;;;;;;1.50;1.10;;;;;;;16.81;72.29;101447.72;7356685;19;20846;-66
2023/06/30 07:07:45;;;;;;;4.53;1.23;;;;;;;16.89;72.12;101444.81;7351190;19;21449;-65
2023/06/30 07:10:14;;;;;;;4.30;1.10;;;;;;;16.89;71.97;101447.53;7359930;19;19990;-66
2023/06/30 07:12:45;;;;;;;4.13;1.40;;;;;;;16.85;71.78;101447.09;7379963;19;19986;-67
2023/06/30 07:15:14;;;;;;;3.03;1.23;;;;;;;16.90;71.26;101444.63;7380152;19;21793;-66
2023/06/30 07:17:43;;;;;;;4.28;1.15;;;;;;;17.00;70.58;101452.41;7376751;19;19947;-67
2023/06/30 07:20:13;;;;;;;2.88;0.82;;;;;;;17.07;68.77;101445.91;7383595;19;19925;-66
2023/06/30 07:22:42;;;;;;;2.22;0.85;;;;;;;17.10;68.45;101448.22;7379154;19;19960;-66
2023/06/30 07:25:12;;;;;;;3.38;1.00;;;;;;;17.17;68.46;101440.09;7377011;19;20642;-66
2023/06/30 07:27:41;;;;;;;2.65;0.75;;;;;;;17.23;67.71;101444.69;7381481;19;20645;-66
2023/06/30 07:30:13;;;;;;;3.25;0.80;;;;;;;17.36;66.43;101432.97;7377972;19;19930;-67
2023/06/30 07:32:42;;;;;;;2.15;0.90;;;;;;;17.46;66.76;101431.53;7378463;19;19923;-67
2023/06/30 07:35:11;;;;;;;1.75;0.70;;;;;;;17.59;66.96;101434.28;7379989;19;19923;-66
2023/06/30 07:37:40;;;;;;;2.45;1.20;;;;;;;17.70;66.58;101441.00;7377129;19;19926;-66
2023/06/30 07:40:10;;;;;;;3.55;0.93;;;;;;;17.76;66.54;101432.00;7381858;19;19943;-66
2023/06/30 07:42:39;;;;;;;5.85;0.98;;;;;;;17.74;66.99;101430.50;7379347;19;20317;-64
2023/06/30 07:45:13;;;;;;;2.92;1.00;;;;;;;17.71;65.95;101431.78;7383734;19;19997;-66
2023/06/30 07:47:43;;;;;;;6.10;1.10;;;;;;;17.74;66.95;101428.63;7382148;19;19960;-66
2023/06/30 07:50:13;;;;;;;3.17;1.15;;;;;;;17.75;66.17;101434.91;7374300;19;19967;-66
2023/06/30 07:52:45;;;;;;;3.70;1.20;;;;;;;17.74;66.49;101434.06;7376444;19;19929;-67
2023/06/30 07:55:16;;;;;;;5.93;1.40;;;;;;;17.84;67.20;101434.50;7380011;19;19930;-67
2023/06/30 07:57:45;;;;;;;6.82;1.10;;;;;;;17.92;66.56;101433.44;7381344;19;19951;-66
2023/06/30 08:00:18;;;;;;;1.60;0.70;;;;;;;18.00;64.15;101436.78;7380361;19;19923;-67
2023/06/30 08:02:48;;;;;;;7.97;1.45;;;;;;;18.08;65.56;101427.53;7375952;19;19922;-67
2023/06/30 08:05:17;;;;;;;3.97;1.30;;;;;;;17.97;65.66;101428.19;7374258;19;20644;-65
2023/06/30 08:07:46;;;;;;;2.45;1.02;;;;;;;17.85;65.89;101432.59;7378704;19;19924;-66
2023/06/30 08:10:16;;;;;;;4.30;0.88;;;;;;;17.70;64.84;101435.53;7381488;19;19930;-66
2023/06/30 08:12:45;;;;;;;1.90;0.80;;;;;;;17.71;66.28;101433.66;7381186;19;19934;-65
2023/06/30 08:15:16;;;;;;;4.32;1.25;;;;;;;17.78;65.56;101439.94;7382097;19;20288;-66
2023/06/30 08:17:45;;;;;;;3.67;0.90;;;;;;;17.85;65.44;101443.50;7380118;19;20014;-66
2023/06/30 08:20:14;;;;;;;1.65;0.90;;;;;;;17.93;64.70;101433.22;7385335;19;19918;-66
2023/06/30 08:22:43;;;;;;;2.83;1.00;;;;;;;18.03;64.24;101430.88;7380844;19;20405;-66
2023/06/30 08:25:13;;;;;;;3.00;0.77;;;;;;;18.05;64.43;101428.81;7383051;19;19914;-66
2023/06/30 08:27:41;;;;;;;5.25;0.90;;;;;;;18.05;64.76;101423.34;7381143;19;22001;-65
2023/06/30 08:30:11;;;;;;;4.22;0.90;;;;;;;18.16;64.82;101435.50;7381807;19;19923;-65
2023/06/30 08:32:42;;;;;;;1.77;1.00;;;;;;;18.22;63.87;101434.63;7377239;19;19947;-66
2023/06/30 08:35:11;;;;;;;2.88;0.77;;;;;;;18.21;64.15;101426.69;7378225;19;20353;-66
2023/06/30 08:37:40;;;;;;;3.67;1.50;;;;;;;18.23;63.13;101427.28;7380062;19;19926;-66
2023/06/30 08:40:11;;;;;;;1.75;1.35;;;;;;;18.26;62.86;101427.69;7380666;19;19923;-66
2023/06/30 08:42:43;;;;;;;3.17;1.00;;;;;;;18.35;62.31;101426.41;7379304;19;19925;-66
2023/06/30 08:45:15;;;;;;;3.80;1.00;;;;;;;18.40;61.70;101421.16;7382492;19;19926;-66
2023/06/30 08:47:47;;;;;;;5.15;0.98;;;;;;;18.43;62.05;101415.28;7380470;19;20341;-65
2023/06/30 08:50:16;;;;;;;3.33;0.90;;;;;;;18.51;62.33;101423.22;7380250;19;19926;-66
2023/06/30 08:52:45;;;;;;;2.08;0.80;;;;;;;18.46;61.40;101430.38;7379296;19;20354;-66
2023/06/30 08:55:14;;;;;;;3.75;0.82;;;;;;;18.45;61.10;101425.97;7380585;19;19923;-66
2023/06/30 08:57:44;;;;;;;1.83;0.85;;;;;;;18.52;61.88;101424.06;7379438;19;19915;-66
2023/06/30 09:00:14;;;;;;;3.85;0.80;;;;;;;18.69;61.55;101414.34;7380889;19;19930;-66
2023/06/30 09:02:46;;;;;;;2.20;0.73;;;;;;;18.83;59.57;101421.44;7375895;19;19986;-66
2023/06/30 09:05:16;;;;;;;3.42;0.80;;;;;;;18.96;59.86;101415.91;7378732;19;19929;-66
2023/06/30 09:07:49;;;;;;;2.63;0.90;;;;;;;18.98;58.57;101421.16;7379632;19;19922;-66
2023/06/30 09:10:18;;;;;;;1.70;0.60;;;;;;;18.88;58.45;101424.34;7380881;19;19923;-66
2023/06/30 09:12:50;;;;;;;2.05;0.82;;;;;;;18.75;57.87;101424.41;7379147;19;19994;-66
2023/06/30 09:15:22;;;;;;;6.40;0.80;;;;;;;18.66;58.23;101414.78;7379260;19;19945;-65
2023/06/30 09:17:54;;;;;;;3.20;1.02;;;;;;;18.63;57.09;101420.69;7380177;19;19960;-65
2023/06/30 09:20:23;;;;;;;2.72;1.30;;;;;;;18.65;57.30;101412.28;7382366;19;19941;-65
2023/06/30 09:22:52;;;;;;;3.35;1.13;;;;;;;18.74;56.52;101414.53;7379846;19;19926;-65
2023/06/30 09:25:41;;;;;;;2.08;0.57;;;;;;;18.87;53.36;101410.91;7381081;19;19918;-65
2023/06/30 09:28:14;;;;;;;5.05;1.00;;;;;;;19.08;53.93;101417.94;7378363;19;20377;-65
2023/06/30 09:30:46;;;;;;;4.95;1.25;;;;;;;19.24;54.53;101409.22;7379374;19;20010;-65
2023/06/30 09:33:20;;;;;;;4.07;0.73;;;;;;;19.30;53.99;101405.59;7384388;19;19922;-66
2023/06/30 09:35:50;;;;;;;3.47;1.10;;;;;;;19.33;53.65;101416.91;7383523;19;19919;-66
2023/06/30 09:38:21;;;;;;;6.43;0.80;;;;;;;19.27;54.46;101416.97;7386587;19;19930;-66
2023/06/30 09:40:52;;;;;;;23.67;4.53;;;;;;;19.21;55.04;101412.38;7387382;19;19922;-66
2023/06/30 09:43:23;;;;;;;3.00;1.00;;;;;;;19.11;54.75;101426.53;7385734;19;20613;-66
2023/06/30 09:45:57;;;;;;;3.13;1.00;;;;;;;18.96;54.25;101424.09;7387314;19;19935;-66
2023/06/30 09:48:34;;;;;;;3.33;0.73;;;;;;;18.87;53.79;101424.56;7385459;19;20410;-66
2023/06/30 09:51:03;;;;;;;;;;;;;;;18.67;53.92;101421.09;7390119;19;19922;-66
2023/06/30 09:53:38;;;;;;;5.00;1.10;;;;;;;18.73;54.84;101415.59;7384047;19;19982;-66
2023/06/30 09:56:07;;;;;;;4.22;1.48;;;;;;;18.99;56.63;101410.00;7385553;19;19971;-66
2023/06/30 09:58:39;;;;;;;3.03;0.68;;;;;;;19.33;55.69;101402.41;7384645;19;20318;-66
2023/06/30 10:01:07;;;;;;;3.58;1.15;;;;;;;19.71;54.91;101413.31;7382501;19;20594;-66
2023/06/30 10:03:49;;;;;;;2.22;0.68;;;;;;;20.00;50.16;101412.59;7384347;19;20710;-65
2023/06/30 10:06:19;;;;;;;5.97;0.85;;;;;;;20.14;50.73;101410.56;7387075;19;19989;-66
2023/06/30 10:08:51;;;;;;;3.03;0.95;;;;;;;20.00;52.54;101415.31;7384164;19;20269;-66
2023/06/30 10:11:21;;;;;;;7.45;2.40;;;;;;;19.88;52.82;101409.78;7386524;19;19930;-67
2023/06/30 10:13:51;;;;;;;10.02;2.83;;;;;;;19.90;49.90;101410.38;7383927;19;19943;-66
2023/06/30 10:16:23;;;;;;;9.48;2.47;;;;;;;19.91;47.69;101406.59;7384759;19;20325;-66
2023/06/30 10:18:57;;;;;;;2.40;0.93;;;;;;;19.86;46.77;101405.56;7389237;19;19927;-66
2023/06/30 10:21:26;;;;;;;4.85;1.00;;;;;;;19.84;49.80;101402.25;7385647;19;20401;-66
2023/06/30 10:23:55;;;;;;;3.50;0.95;;;;;;;19.82;50.85;101409.81;7384403;19;19930;-66
2023/06/30 10:26:26;;;;;;;3.33;1.00;;;;;;;19.83;51.23;101408.75;7384901;19;19922;-66
2023/06/30 10:28:56;;;;;;;4.57;1.23;;;;;;;19.80;51.80;101412.78;7383168;19;20411;-66
2023/06/30 10:31:25;;;;;;;2.47;1.20;;;;;;;19.71;51.93;101411.41;7380351;19;19933;-66
2023/06/30 10:33:57;;;;;;;3.13;0.80;;;;;;;19.57;51.42;101407.09;7382374;19;19982;-66
2023/06/30 10:36:28;;;;;;;;;;;;;;;19.28;50.11;101407.72;7384981;19;20261;-66
2023/06/30 10:38:57;;;;;;;1.15;0.52;;;;;;;19.59;52.60;101410.44;7389093;19;19923;-66
2023/06/30 10:41:26;;;;;;;5.82;1.20;;;;;;;19.88;51.81;101407.03;7399301;19;19918;-66
2023/06/30 10:44:11;;;;;;;2.05;0.52;;;;;;;20.10;46.55;101388.31;7383886;19;19925;-66
2023/06/30 10:46:47;;;;;;;3.08;0.82;;;;;;;20.36;47.27;101393.47;7384404;19;19942;-66
2023/06/30 10:49:25;;;;;;;4.30;1.70;;;;;;;20.69;44.97;101387.59;7385158;19;19926;-66
2023/06/30 10:51:56;;;;;;;4.57;1.55;;;;;;;20.98;46.31;101385.09;7382944;19;19926;-66
2023/06/30 10:54:26;;;;;;;4.45;1.40;;;;;;;21.03;47.04;101388.81;7379772;19;19974;-66
2023/06/30 10:57:07;;;;;;;3.17;1.17;;;;;;;20.83;46.32;101391.84;7379887;19;20358;-66
2023/06/30 10:59:40;;;;;;;2.55;0.70;;;;;;;20.59;44.76;101387.31;7382214;19;19927;-66
2023/06/30 11:02:17;;;;;;;3.65;0.90;;;;;;;20.45;44.21;101396.75;7377078;19;20017;-66
2023/06/30 11:04:50;;;;;;;3.90;1.23;;;;;;;20.38;46.22;101404.22;7378637;19;19911;-66
2023/06/30 11:07:19;;;;;;;6.13;1.83;;;;;;;20.27;47.76;101391.28;7380970;19;20006;-66
2023/06/30 11:10:03;;;;;;;2.05;0.77;;;;;;;20.15;46.30;101393.91;7384062;19;19930;-66
2023/06/30 11:12:53;;;;;;;2.05;0.68;;;;;;;20.10;47.49;101398.41;7382372;19;20260;-66
2023/06/30 11:15:37;;;;;;;2.95;1.08;;;;;;;20.15;47.96;101390.34;7381302;19;20393;-66
2023/06/30 11:18:07;;;;;;;3.40;1.20;;;;;;;20.27;49.67;101394.00;7382984;19;19914;-66
2023/06/30 11:20:38;;;;;;;3.10;1.10;;;;;;;20.61;48.62;101392.56;7386318;19;19974;-66
2023/06/30 11:23:08;;;;;;;4.90;0.90;;;;;;;20.97;49.44;101384.25;7382881;19;20023;-66
2023/06/30 11:25:37;;;;;;;3.35;0.95;;;;;;;21.19;47.18;101379.09;7384721;19;19978;-65
2023/06/30 11:28:08;;;;;;;2.05;0.90;;;;;;;21.25;47.00;101383.66;7382382;19;19923;-66
2023/06/30 11:30:38;;;;;;;1.33;0.82;;;;;;;21.27;47.43;101379.59;7381837;19;19948;-66
2023/06/30 11:33:09;;;;;;;4.60;1.10;;;;;;;21.20;47.69;101378.88;7379548;19;20377;-66
2023/06/30 11:35:40;;;;;;;2.03;0.95;;;;;;;21.05;48.13;101375.72;7380334;19;19985;-66
2023/06/30 11:38:10;;;;;;;4.57;1.20;;;;;;;21.02;47.98;101375.34;7382817;19;19922;-66
2023/06/30 11:40:48;;;;;;;2.70;0.95;;;;;;;21.11;47.34;101376.69;7383392;19;19922;-66
2023/06/30 11:43:17;;;;;;;2.65;0.90;;;;;;;21.07;46.58;101376.31;7382155;19;20339;-66
2023/06/30 11:45:57;;;;;;;2.08;0.93;;;;;;;20.96;42.85;101371.66;7381393;19;19930;-66
2023/06/30 11:48:26;;;;;;;2.38;0.82;;;;;;;20.89;45.19;101362.66;7382906;19;19918;-66